sensor_id;sensor_type;location;lat;lon;timestamp;pressure;altitude;pressure_sealevel;temperature;humidity
28606;BME280;46498;49.968;7.754;2023-09-18T00:00:20;-18874.00;;;18.71;100.00
28606;BME280;46498;49.968;7.754;2023-09-18T00:05:21;-18870.00;;;18.60;100.00
28606;BME280;46498;49.968;7.754;2023-09-18T00:10:26;-18872.00;;;18.67;100.00
28606;BME280;46498;49.968;7.754;2023-09-18T00:15:27;-18876.00;;;18.79;100.00
28606;BME280;46498;49.968;7.754;2023-09-18T00:20:27;-18877.00;;;18.83;100.00
28606;BME280;46498;49.968;7.754;2023-09-18T00:25:29;-18879.00;;;18.88;100.00
28606;BME280;46498;49.968;7.754;2023-09-18T00:30:31;-18881.00;;;18.96;100.00
28606;BME280;46498;49.968;7.754;2023-09-18T00:35:32;-18878.00;;;18.86;100.00
28606;BME280;46498;49.968;7.754;2023-09-18T00:40:33;-18881.00;;;18.95;100.00
28606;BME280;46498;49.968;7.754;2023-09-18T00:45:35;-18874.00;;;18.74;100.00
28606;BME280;46498;49.968;7.754;2023-09-18T00:50:38;-18871.00;;;18.62;100.00
28606;BME280;46498;49.968;7.754;2023-09-18T00:55:40;-18869.00;;;18.56;100.00
28606;BME280;46498;49.968;7.754;2023-09-18T01:00:42;-18865.00;;;18.44;100.00
28606;BME280;46498;49.968;7.754;2023-09-18T01:05:44;-18863.00;;;18.38;100.00
28606;BME280;46498;49.968;7.754;2023-09-18T01:10:53;-18854.00;;;18.11;100.00
28606;BME280;46498;49.968;7.754;2023-09-18T01:16:02;-18857.00;;;18.19;100.00
28606;BME280;46498;49.968;7.754;2023-09-18T01:21:06;-18859.00;;;18.26;100.00
28606;BME280;46498;49.968;7.754;2023-09-18T01:26:07;-18857.00;;;18.20;100.00
28606;BME280;46498;49.968;7.754;2023-09-18T01:31:08;-18862.00;;;18.35;100.00
28606;BME280;46498;49.968;7.754;2023-09-18T01:36:10;-18861.00;;;18.31;100.00
28606;BME280;46498;49.968;7.754;2023-09-18T01:41:12;-18864.00;;;18.41;100.00
28606;BME280;46498;49.968;7.754;2023-09-18T01:46:13;-18864.00;;;18.40;100.00
28606;BME280;46498;49.968;7.754;2023-09-18T01:51:14;-18865.00;;;18.43;100.00
28606;BME280;46498;49.968;7.754;2023-09-18T01:56:16;-18868.00;;;18.54;100.00
28606;BME280;46498;49.968;7.754;2023-09-18T02:01:17;-18865.00;;;18.43;100.00
28606;BME280;46498;49.968;7.754;2023-09-18T02:06:18;-18859.00;;;18.25;100.00
28606;BME280;46498;49.968;7.754;2023-09-18T02:11:19;-18858.00;;;18.23;100.00
28606;BME280;46498;49.968;7.754;2023-09-18T02:16:20;-18855.00;;;18.12;100.00
28606;BME280;46498;49.968;7.754;2023-09-18T02:21:24;-18853.00;;;18.07;100.00
28606;BME280;46498;49.968;7.754;2023-09-18T02:26:26;-18857.00;;;18.18;100.00
28606;BME280;46498;49.968;7.754;2023-09-18T02:31:27;-18850.00;;;17.97;100.00
28606;BME280;46498;49.968;7.754;2023-09-18T02:36:28;-18845.00;;;17.81;100.00
28606;BME280;46498;49.968;7.754;2023-09-18T02:41:29;-18836.00;;;17.54;100.00
28606;BME280;46498;49.968;7.754;2023-09-18T02:46:30;-18835.00;;;17.51;100.00
28606;BME280;46498;49.968;7.754;2023-09-18T02:51:31;-18839.00;;;17.64;100.00
28606;BME280;46498;49.968;7.754;2023-09-18T02:56:32;-18842.00;;;17.71;100.00
28606;BME280;46498;49.968;7.754;2023-09-18T03:01:33;-18840.00;;;17.66;100.00
28606;BME280;46498;49.968;7.754;2023-09-18T03:06:38;-18840.00;;;17.66;100.00
28606;BME280;46498;49.968;7.754;2023-09-18T03:11:39;-18843.00;;;17.76;100.00
28606;BME280;46498;49.968;7.754;2023-09-18T03:16:40;-18841.00;;;17.69;100.00
28606;BME280;46498;49.968;7.754;2023-09-18T03:21:41;-18839.00;;;17.63;100.00
28606;BME280;46498;49.968;7.754;2023-09-18T03:26:42;-18835.00;;;17.50;100.00
28606;BME280;46498;49.968;7.754;2023-09-18T03:31:43;-18837.00;;;17.56;100.00
28606;BME280;46498;49.968;7.754;2023-09-18T03:36:44;-18834.00;;;17.47;100.00
28606;BME280;46498;49.968;7.754;2023-09-18T03:41:46;-18835.00;;;17.51;100.00
28606;BME280;46498;49.968;7.754;2023-09-18T03:46:47;-18832.00;;;17.41;100.00
28606;BME280;46498;49.968;7.754;2023-09-18T03:51:48;-18833.00;;;17.42;100.00
28606;BME280;46498;49.968;7.754;2023-09-18T03:56:49;-18828.00;;;17.27;100.00
28606;BME280;46498;49.968;7.754;2023-09-18T04:01:49;-18831.00;;;17.37;100.00
28606;BME280;46498;49.968;7.754;2023-09-18T04:06:50;-18833.00;;;17.45;100.00
28606;BME280;46498;49.968;7.754;2023-09-18T04:11:51;-18836.00;;;17.53;100.00
28606;BME280;46498;49.968;7.754;2023-09-18T04:16:53;-18839.00;;;17.62;100.00
28606;BME280;46498;49.968;7.754;2023-09-18T04:21:55;-18841.00;;;17.68;100.00
28606;BME280;46498;49.968;7.754;2023-09-18T04:26:56;-18844.00;;;17.77;100.00
28606;BME280;46498;49.968;7.754;2023-09-18T04:31:57;-18848.00;;;17.90;100.00
28606;BME280;46498;49.968;7.754;2023-09-18T04:36:59;-18851.00;;;18.00;100.00
28606;BME280;46498;49.968;7.754;2023-09-18T04:42:01;-18845.00;;;17.80;100.00
28606;BME280;46498;49.968;7.754;2023-09-18T04:47:04;-18845.00;;;17.82;100.00
28606;BME280;46498;49.968;7.754;2023-09-18T04:52:06;-18848.00;;;17.90;100.00
28606;BME280;46498;49.968;7.754;2023-09-18T04:57:08;-18843.00;;;17.76;100.00
28606;BME280;46498;49.968;7.754;2023-09-18T05:02:08;-18842.00;;;17.73;100.00
28606;BME280;46498;49.968;7.754;2023-09-18T05:07:11;-18843.00;;;17.75;100.00
28606;BME280;46498;49.968;7.754;2023-09-18T05:12:12;-18842.00;;;17.73;100.00
28606;BME280;46498;49.968;7.754;2023-09-18T05:17:15;-18839.00;;;17.64;100.00
28606;BME280;46498;49.968;7.754;2023-09-18T05:22:17;-18836.00;;;17.53;100.00
28606;BME280;46498;49.968;7.754;2023-09-18T05:27:18;-18836.00;;;17.53;100.00
28606;BME280;46498;49.968;7.754;2023-09-18T05:32:19;-18832.00;;;17.39;100.00
28606;BME280;46498;49.968;7.754;2023-09-18T05:37:20;-18831.00;;;17.37;100.00
28606;BME280;46498;49.968;7.754;2023-09-18T05:42:21;-18830.00;;;17.35;100.00
28606;BME280;46498;49.968;7.754;2023-09-18T05:47:22;-18833.00;;;17.43;100.00
28606;BME280;46498;49.968;7.754;2023-09-18T05:52:24;-18831.00;;;17.38;100.00
28606;BME280;46498;49.968;7.754;2023-09-18T05:57:26;-18829.00;;;17.31;100.00
28606;BME280;46498;49.968;7.754;2023-09-18T06:02:28;-18832.00;;;17.41;100.00
28606;BME280;46498;49.968;7.754;2023-09-18T06:07:30;-18830.00;;;17.33;100.00
28606;BME280;46498;49.968;7.754;2023-09-18T06:12:31;-18829.00;;;17.31;100.00
28606;BME280;46498;49.968;7.754;2023-09-18T06:17:31;-18827.00;;;17.24;100.00
28606;BME280;46498;49.968;7.754;2023-09-18T06:22:33;-18826.00;;;17.21;100.00
28606;BME280;46498;49.968;7.754;2023-09-18T06:27:34;-18826.00;;;17.21;100.00
28606;BME280;46498;49.968;7.754;2023-09-18T06:32:36;-18827.00;;;17.23;100.00
28606;BME280;46498;49.968;7.754;2023-09-18T06:37:40;-18828.00;;;17.28;100.00
28606;BME280;46498;49.968;7.754;2023-09-18T06:42:41;-18829.00;;;17.30;100.00
28606;BME280;46498;49.968;7.754;2023-09-18T06:47:43;-18829.00;;;17.30;100.00
28606;BME280;46498;49.968;7.754;2023-09-18T06:52:45;-18828.00;;;17.29;100.00
28606;BME280;46498;49.968;7.754;2023-09-18T06:57:46;-18829.00;;;17.32;100.00
28606;BME280;46498;49.968;7.754;2023-09-18T07:02:49;-18830.00;;;17.34;100.00
28606;BME280;46498;49.968;7.754;2023-09-18T07:07:50;-18831.00;;;17.37;100.00
28606;BME280;46498;49.968;7.754;2023-09-18T07:12:51;-18827.00;;;17.24;100.00
28606;BME280;46498;49.968;7.754;2023-09-18T07:17:52;-18827.00;;;17.26;100.00
28606;BME280;46498;49.968;7.754;2023-09-18T07:22:53;-18829.00;;;17.32;100.00
28606;BME280;46498;49.968;7.754;2023-09-18T07:27:54;-18828.00;;;17.29;100.00
28606;BME280;46498;49.968;7.754;2023-09-18T07:32:55;-18830.00;;;17.35;100.00
28606;BME280;46498;49.968;7.754;2023-09-18T07:37:59;-18831.00;;;17.37;100.00
28606;BME280;46498;49.968;7.754;2023-09-18T07:43:00;-18831.00;;;17.38;100.00
28606;BME280;46498;49.968;7.754;2023-09-18T07:48:01;-18833.00;;;17.43;100.00
28606;BME280;46498;49.968;7.754;2023-09-18T07:53:02;-18831.00;;;17.38;100.00
28606;BME280;46498;49.968;7.754;2023-09-18T07:58:04;-18833.00;;;17.44;100.00
28606;BME280;46498;49.968;7.754;2023-09-18T08:03:05;-18835.00;;;17.50;100.00
28606;BME280;46498;49.968;7.754;2023-09-18T08:08:06;-18835.00;;;17.49;100.00
28606;BME280;46498;49.968;7.754;2023-09-18T08:13:07;-18834.00;;;17.48;100.00
28606;BME280;46498;49.968;7.754;2023-09-18T08:18:08;-18834.00;;;17.48;100.00
28606;BME280;46498;49.968;7.754;2023-09-18T08:23:10;-18836.00;;;17.54;100.00
28606;BME280;46498;49.968;7.754;2023-09-18T08:28:11;-18836.00;;;17.53;100.00
28606;BME280;46498;49.968;7.754;2023-09-18T08:33:15;-18833.00;;;17.45;100.00
28606;BME280;46498;49.968;7.754;2023-09-18T08:38:16;-18834.00;;;17.48;100.00
28606;BME280;46498;49.968;7.754;2023-09-18T08:43:18;-18838.00;;;17.59;100.00
28606;BME280;46498;49.968;7.754;2023-09-18T08:48:20;-18837.00;;;17.57;100.00
28606;BME280;46498;49.968;7.754;2023-09-18T08:53:22;-18839.00;;;17.61;100.00
28606;BME280;46498;49.968;7.754;2023-09-18T08:58:23;-18836.00;;;17.54;100.00
28606;BME280;46498;49.968;7.754;2023-09-18T09:03:26;-18837.00;;;17.56;100.00
28606;BME280;46498;49.968;7.754;2023-09-18T09:08:28;-18837.00;;;17.55;100.00
28606;BME280;46498;49.968;7.754;2023-09-18T09:13:29;-18839.00;;;17.62;100.00
28606;BME280;46498;49.968;7.754;2023-09-18T09:18:49;-18839.00;;;17.62;100.00
28606;BME280;46498;49.968;7.754;2023-09-18T09:23:53;-18837.00;;;17.56;100.00
28606;BME280;46498;49.968;7.754;2023-09-18T09:28:55;-18839.00;;;17.61;100.00
28606;BME280;46498;49.968;7.754;2023-09-18T09:33:57;-18840.00;;;17.65;100.00
28606;BME280;46498;49.968;7.754;2023-09-18T09:38:58;-18839.00;;;17.64;100.00
28606;BME280;46498;49.968;7.754;2023-09-18T09:44:01;-18840.00;;;17.67;100.00
28606;BME280;46498;49.968;7.754;2023-09-18T09:49:03;-18840.00;;;17.66;100.00
28606;BME280;46498;49.968;7.754;2023-09-18T09:54:05;-18841.00;;;17.70;100.00
28606;BME280;46498;49.968;7.754;2023-09-18T09:59:07;-18840.00;;;17.66;100.00
28606;BME280;46498;49.968;7.754;2023-09-18T10:04:11;-18840.00;;;17.67;100.00
28606;BME280;46498;49.968;7.754;2023-09-18T10:09:14;-18840.00;;;17.66;100.00
28606;BME280;46498;49.968;7.754;2023-09-18T10:14:18;-18840.00;;;17.65;100.00
28606;BME280;46498;49.968;7.754;2023-09-18T10:20:41;-18841.00;;;17.68;100.00
28606;BME280;46498;49.968;7.754;2023-09-18T10:25:44;-18846.00;;;17.83;100.00
28606;BME280;46498;49.968;7.754;2023-09-18T10:30:46;-18850.00;;;17.96;100.00
28606;BME280;46498;49.968;7.754;2023-09-18T10:35:47;-18850.00;;;17.98;100.00
28606;BME280;46498;49.968;7.754;2023-09-18T10:40:49;-18853.00;;;18.07;100.00
28606;BME280;46498;49.968;7.754;2023-09-18T10:45:51;-18854.00;;;18.11;100.00
28606;BME280;46498;49.968;7.754;2023-09-18T10:50:53;-18858.00;;;18.22;100.00
28606;BME280;46498;49.968;7.754;2023-09-18T10:55:54;-18860.00;;;18.30;100.00
28606;BME280;46498;49.968;7.754;2023-09-18T11:00:55;-18861.00;;;18.31;100.00
28606;BME280;46498;49.968;7.754;2023-09-18T11:06:08;-18862.00;;;18.36;100.00
28606;BME280;46498;49.968;7.754;2023-09-18T11:11:12;-18860.00;;;18.28;100.00
28606;BME280;46498;49.968;7.754;2023-09-18T11:16:36;-18860.00;;;18.27;100.00
28606;BME280;46498;49.968;7.754;2023-09-18T11:21:39;-18861.00;;;18.32;100.00
28606;BME280;46498;49.968;7.754;2023-09-18T11:26:41;-18870.00;;;18.61;100.00
28606;BME280;46498;49.968;7.754;2023-09-18T11:31:53;-18873.00;;;18.70;100.00
28606;BME280;46498;49.968;7.754;2023-09-18T11:36:55;-18881.00;;;18.96;100.00
28606;BME280;46498;49.968;7.754;2023-09-18T11:42:06;-18892.00;;;19.29;100.00
28606;BME280;46498;49.968;7.754;2023-09-18T11:47:09;-18897.00;;;19.44;100.00
28606;BME280;46498;49.968;7.754;2023-09-18T11:52:18;-18914.00;;;20.00;100.00
28606;BME280;46498;49.968;7.754;2023-09-18T11:57:20;-18918.00;;;20.10;100.00
28606;BME280;46498;49.968;7.754;2023-09-18T12:02:29;-18906.00;;;19.74;100.00
28606;BME280;46498;49.968;7.754;2023-09-18T12:07:37;-18901.00;;;19.59;100.00
28606;BME280;46498;49.968;7.754;2023-09-18T12:12:44;-18906.00;;;19.72;100.00
28606;BME280;46498;49.968;7.754;2023-09-18T12:17:45;-18909.00;;;19.81;100.00
28606;BME280;46498;49.968;7.754;2023-09-18T12:22:48;-18914.00;;;19.99;100.00
28606;BME280;46498;49.968;7.754;2023-09-18T12:27:52;-18919.00;;;20.14;100.00
28606;BME280;46498;49.968;7.754;2023-09-18T12:32:57;-18916.00;;;20.06;100.00
28606;BME280;46498;49.968;7.754;2023-09-18T12:37:59;-18919.00;;;20.13;100.00
28606;BME280;46498;49.968;7.754;2023-09-18T12:43:02;-18921.00;;;20.21;100.00
28606;BME280;46498;49.968;7.754;2023-09-18T12:48:06;-18919.00;;;20.14;100.00
28606;BME280;46498;49.968;7.754;2023-09-18T12:53:21;-18916.00;;;20.05;100.00
28606;BME280;46498;49.968;7.754;2023-09-18T12:58:22;-18912.00;;;19.91;100.00
28606;BME280;46498;49.968;7.754;2023-09-18T13:03:24;-18912.00;;;19.92;99.21
28606;BME280;46498;49.968;7.754;2023-09-18T13:08:25;-18913.00;;;19.95;99.25
28606;BME280;46498;49.968;7.754;2023-09-18T13:13:27;-18921.00;;;20.20;100.00
28606;BME280;46498;49.968;7.754;2023-09-18T13:18:28;-18925.00;;;20.34;98.07
28606;BME280;46498;49.968;7.754;2023-09-18T13:23:31;-18932.00;;;20.56;97.51
28606;BME280;46498;49.968;7.754;2023-09-18T13:28:34;-18952.00;;;21.17;94.83
28606;BME280;46498;49.968;7.754;2023-09-18T13:33:40;-18964.00;;;21.57;88.33
28606;BME280;46498;49.968;7.754;2023-09-18T13:38:41;-18976.00;;;21.95;87.17
28606;BME280;46498;49.968;7.754;2023-09-18T13:43:44;-18976.00;;;21.93;89.81
28606;BME280;46498;49.968;7.754;2023-09-18T13:48:46;-18990.00;;;22.39;88.07
28606;BME280;46498;49.968;7.754;2023-09-18T13:53:48;-18981.00;;;22.10;85.18
28606;BME280;46498;49.968;7.754;2023-09-18T13:58:49;-18988.00;;;22.30;84.11
28606;BME280;46498;49.968;7.754;2023-09-18T14:03:50;-18990.00;;;22.37;82.97
28606;BME280;46498;49.968;7.754;2023-09-18T14:08:51;-19000.00;;;22.68;82.34
28606;BME280;46498;49.968;7.754;2023-09-18T14:13:52;-18977.00;;;21.98;85.10
28606;BME280;46498;49.968;7.754;2023-09-18T14:18:53;-18963.00;;;21.52;89.85
28606;BME280;46498;49.968;7.754;2023-09-18T14:23:54;-18946.00;;;20.98;91.64
28606;BME280;46498;49.968;7.754;2023-09-18T14:28:55;-18938.00;;;20.75;93.76
28606;BME280;46498;49.968;7.754;2023-09-18T14:33:56;-18942.00;;;20.87;92.51
28606;BME280;46498;49.968;7.754;2023-09-18T14:39:02;-18968.00;;;21.69;87.04
28606;BME280;46498;49.968;7.754;2023-09-18T14:44:04;-18989.00;;;22.35;83.45
28606;BME280;46498;49.968;7.754;2023-09-18T14:49:06;-18996.00;;;22.55;80.11
28606;BME280;46498;49.968;7.754;2023-09-18T14:54:07;-18986.00;;;22.25;78.29
28606;BME280;46498;49.968;7.754;2023-09-18T14:59:08;-18989.00;;;22.36;78.79
28606;BME280;46498;49.968;7.754;2023-09-18T15:04:09;-18986.00;;;22.25;78.90
28606;BME280;46498;49.968;7.754;2023-09-18T15:09:11;-18982.00;;;22.13;79.54
28606;BME280;46498;49.968;7.754;2023-09-18T15:14:12;-18986.00;;;22.26;79.14
28606;BME280;46498;49.968;7.754;2023-09-18T15:19:12;-18991.00;;;22.40;78.75
28606;BME280;46498;49.968;7.754;2023-09-18T15:24:14;-18993.00;;;22.47;77.56
28606;BME280;46498;49.968;7.754;2023-09-18T15:29:15;-18988.00;;;22.32;75.59
28606;BME280;46498;49.968;7.754;2023-09-18T15:34:17;-18983.00;;;22.16;75.05
28606;BME280;46498;49.968;7.754;2023-09-18T15:39:18;-18974.00;;;21.89;77.89
28606;BME280;46498;49.968;7.754;2023-09-18T15:44:19;-18959.00;;;21.39;80.72
28606;BME280;46498;49.968;7.754;2023-09-18T15:49:20;-18949.00;;;21.10;83.66
28606;BME280;46498;49.968;7.754;2023-09-18T15:54:21;-18943.00;;;20.90;84.19
28606;BME280;46498;49.968;7.754;2023-09-18T15:59:22;-18940.00;;;20.79;88.23
28606;BME280;46498;49.968;7.754;2023-09-18T16:04:23;-18936.00;;;20.68;90.53
28606;BME280;46498;49.968;7.754;2023-09-18T16:09:24;-18933.00;;;20.58;92.12
28606;BME280;46498;49.968;7.754;2023-09-18T16:14:25;-18928.00;;;20.41;94.46
28606;BME280;46498;49.968;7.754;2023-09-18T16:19:26;-18926.00;;;20.35;95.71
28606;BME280;46498;49.968;7.754;2023-09-18T16:24:27;-18920.00;;;20.17;97.85
28606;BME280;46498;49.968;7.754;2023-09-18T16:29:29;-18918.00;;;20.10;98.62
28606;BME280;46498;49.968;7.754;2023-09-18T16:34:30;-18913.00;;;19.96;100.00
28606;BME280;46498;49.968;7.754;2023-09-18T16:39:31;-18909.00;;;19.83;100.00
28606;BME280;46498;49.968;7.754;2023-09-18T16:44:32;-18907.00;;;19.76;100.00
28606;BME280;46498;49.968;7.754;2023-09-18T16:49:32;-18904.00;;;19.67;100.00
28606;BME280;46498;49.968;7.754;2023-09-18T16:54:33;-18901.00;;;19.58;100.00
28606;BME280;46498;49.968;7.754;2023-09-18T16:59:34;-18900.00;;;19.55;100.00
28606;BME280;46498;49.968;7.754;2023-09-18T17:04:35;-18902.00;;;19.60;100.00
28606;BME280;46498;49.968;7.754;2023-09-18T17:09:40;-18901.00;;;19.56;100.00
28606;BME280;46498;49.968;7.754;2023-09-18T17:14:41;-18897.00;;;19.44;100.00
28606;BME280;46498;49.968;7.754;2023-09-18T17:19:42;-18891.00;;;19.25;100.00
28606;BME280;46498;49.968;7.754;2023-09-18T17:24:44;-18868.00;;;18.54;100.00
28606;BME280;46498;49.968;7.754;2023-09-18T17:29:44;-18849.00;;;17.93;100.00
28606;BME280;46498;49.968;7.754;2023-09-18T17:34:46;-18839.00;;;17.62;100.00
28606;BME280;46498;49.968;7.754;2023-09-18T17:39:48;-18836.00;;;17.54;100.00
28606;BME280;46498;49.968;7.754;2023-09-18T17:44:49;-18834.00;;;17.48;100.00
28606;BME280;46498;49.968;7.754;2023-09-18T17:49:50;-18834.00;;;17.47;100.00
28606;BME280;46498;49.968;7.754;2023-09-18T17:54:51;-18832.00;;;17.40;100.00
28606;BME280;46498;49.968;7.754;2023-09-18T17:59:53;-18831.00;;;17.36;100.00
28606;BME280;46498;49.968;7.754;2023-09-18T18:04:55;-18831.00;;;17.38;100.00
28606;BME280;46498;49.968;7.754;2023-09-18T18:09:57;-18827.00;;;17.23;100.00
28606;BME280;46498;49.968;7.754;2023-09-18T18:14:57;-18824.00;;;17.16;100.00
28606;BME280;46498;49.968;7.754;2023-09-18T18:19:58;-18821.00;;;17.07;100.00
28606;BME280;46498;49.968;7.754;2023-09-18T18:24:59;-18821.00;;;17.04;100.00
28606;BME280;46498;49.968;7.754;2023-09-18T18:30:00;-18817.00;;;16.94;100.00
28606;BME280;46498;49.968;7.754;2023-09-18T18:35:02;-18818.00;;;16.98;100.00
28606;BME280;46498;49.968;7.754;2023-09-18T18:40:04;-18818.00;;;16.97;100.00
28606;BME280;46498;49.968;7.754;2023-09-18T18:45:08;-18820.00;;;17.03;100.00
28606;BME280;46498;49.968;7.754;2023-09-18T18:50:09;-18821.00;;;17.06;100.00
28606;BME280;46498;49.968;7.754;2023-09-18T18:55:11;-18819.00;;;17.01;100.00
28606;BME280;46498;49.968;7.754;2023-09-18T19:00:12;-18819.00;;;17.00;100.00
28606;BME280;46498;49.968;7.754;2023-09-18T19:05:13;-18818.00;;;16.97;100.00
28606;BME280;46498;49.968;7.754;2023-09-18T19:10:14;-18816.00;;;16.90;100.00
28606;BME280;46498;49.968;7.754;2023-09-18T19:15:15;-18814.00;;;16.84;100.00
28606;BME280;46498;49.968;7.754;2023-09-18T19:20:16;-18814.00;;;16.84;100.00
28606;BME280;46498;49.968;7.754;2023-09-18T19:25:17;-18810.00;;;16.70;100.00
28606;BME280;46498;49.968;7.754;2023-09-18T19:30:18;-18808.00;;;16.65;100.00
28606;BME280;46498;49.968;7.754;2023-09-18T19:35:19;-18805.00;;;16.54;100.00
28606;BME280;46498;49.968;7.754;2023-09-18T19:40:20;-18805.00;;;16.56;100.00
28606;BME280;46498;49.968;7.754;2023-09-18T19:45:22;-18808.00;;;16.64;100.00
28606;BME280;46498;49.968;7.754;2023-09-18T19:50:23;-18803.00;;;16.50;100.00
28606;BME280;46498;49.968;7.754;2023-09-18T19:55:26;-18805.00;;;16.55;100.00
28606;BME280;46498;49.968;7.754;2023-09-18T20:00:30;-18802.00;;;16.45;100.00
28606;BME280;46498;49.968;7.754;2023-09-18T20:05:31;-18799.00;;;16.36;100.00
28606;BME280;46498;49.968;7.754;2023-09-18T20:10:33;-18797.00;;;16.31;100.00
28606;BME280;46498;49.968;7.754;2023-09-18T20:15:34;-18796.00;;;16.26;100.00
28606;BME280;46498;49.968;7.754;2023-09-18T20:20:35;-18793.00;;;16.16;100.00
28606;BME280;46498;49.968;7.754;2023-09-18T20:25:36;-18793.00;;;16.17;100.00
28606;BME280;46498;49.968;7.754;2023-09-18T20:30:40;-18795.00;;;16.23;100.00
28606;BME280;46498;49.968;7.754;2023-09-18T20:35:42;-18784.00;;;15.89;100.00
28606;BME280;46498;49.968;7.754;2023-09-18T20:40:43;-18776.00;;;15.65;100.00
28606;BME280;46498;49.968;7.754;2023-09-18T20:45:44;-18771.00;;;15.49;100.00
28606;BME280;46498;49.968;7.754;2023-09-18T20:50:47;-18768.00;;;15.39;100.00
28606;BME280;46498;49.968;7.754;2023-09-18T20:55:48;-18764.00;;;15.26;100.00
28606;BME280;46498;49.968;7.754;2023-09-18T21:00:49;-18765.00;;;15.31;100.00
28606;BME280;46498;49.968;7.754;2023-09-18T21:05:52;-18765.00;;;15.28;100.00
28606;BME280;46498;49.968;7.754;2023-09-18T21:10:56;-18761.00;;;15.17;100.00
28606;BME280;46498;49.968;7.754;2023-09-18T21:15:58;-18759.00;;;15.12;100.00
28606;BME280;46498;49.968;7.754;2023-09-18T21:21:03;-18754.00;;;14.94;100.00
28606;BME280;46498;49.968;7.754;2023-09-18T21:26:04;-18759.00;;;15.10;100.00
28606;BME280;46498;49.968;7.754;2023-09-18T21:31:12;-18762.00;;;15.20;100.00
28606;BME280;46498;49.968;7.754;2023-09-18T21:36:18;-18761.00;;;15.17;100.00
28606;BME280;46498;49.968;7.754;2023-09-18T21:41:22;-18760.00;;;15.15;100.00
28606;BME280;46498;49.968;7.754;2023-09-18T21:46:23;-18757.00;;;15.06;100.00
28606;BME280;46498;49.968;7.754;2023-09-18T21:51:25;-18756.00;;;15.02;100.00
28606;BME280;46498;49.968;7.754;2023-09-18T21:56:26;-18758.00;;;15.09;100.00
28606;BME280;46498;49.968;7.754;2023-09-18T22:01:26;-18756.00;;;15.03;100.00
28606;BME280;46498;49.968;7.754;2023-09-18T22:06:28;-18757.00;;;15.04;100.00
28606;BME280;46498;49.968;7.754;2023-09-18T22:11:29;-18754.00;;;14.95;100.00
28606;BME280;46498;49.968;7.754;2023-09-18T22:16:34;-18754.00;;;14.96;100.00
28606;BME280;46498;49.968;7.754;2023-09-18T22:21:35;-18756.00;;;15.00;100.00
28606;BME280;46498;49.968;7.754;2023-09-18T22:26:36;-18757.00;;;15.05;100.00
28606;BME280;46498;49.968;7.754;2023-09-18T22:31:38;-18761.00;;;15.16;100.00
28606;BME280;46498;49.968;7.754;2023-09-18T22:36:40;-18762.00;;;15.19;100.00
28606;BME280;46498;49.968;7.754;2023-09-18T22:57:42;-18760.00;;;15.14;100.00
28606;BME280;46498;49.968;7.754;2023-09-18T23:02:46;-18755.00;;;14.98;100.00
28606;BME280;46498;49.968;7.754;2023-09-18T23:07:54;-18755.00;;;14.99;100.00
28606;BME280;46498;49.968;7.754;2023-09-18T23:12:58;-18754.00;;;14.95;100.00
28606;BME280;46498;49.968;7.754;2023-09-18T23:18:04;-18753.00;;;14.91;100.00
28606;BME280;46498;49.968;7.754;2023-09-18T23:23:06;-18749.00;;;14.79;100.00
28606;BME280;46498;49.968;7.754;2023-09-18T23:28:07;-18744.00;;;14.65;100.00
28606;BME280;46498;49.968;7.754;2023-09-18T23:33:08;-18745.00;;;14.67;100.00
28606;BME280;46498;49.968;7.754;2023-09-18T23:38:11;-18744.00;;;14.65;100.00
28606;BME280;46498;49.968;7.754;2023-09-18T23:43:12;-18743.00;;;14.60;100.00
28606;BME280;46498;49.968;7.754;2023-09-18T23:48:17;-18742.00;;;14.58;100.00
28606;BME280;46498;49.968;7.754;2023-09-18T23:53:19;-18743.00;;;14.62;100.00
28606;BME280;46498;49.968;7.754;2023-09-18T23:58:25;-18743.00;;;14.61;100.00
